Time;durP1;ratioP1;P1;durP2;ratioP2;P2;SDS_P1;SDS_P2;PMS_P1;PMS_P2;Temp;Humidity;BMP_temperature;BMP_pressure;BME280_temperature;BME280_humidity;BME280_pressure;Samples;Min_cycle;Max_cycle;Signal;HPM_P1;HPM_P2
2022/04/17 00:03:32;;;;;;;10.23;3.70;;;;;;;;;;10453202;28;20036;-69
2022/04/17 00:08:36;;;;;;;7.37;3.50;;;;;;;;;;10434557;28;20048;-69
2022/04/17 00:13:40;;;;;;;2.47;1.20;;;;;;;;;;10453309;28;20072;-69
2022/04/17 00:18:43;;;;;;;7.77;3.40;;;;;;;;;;10455189;28;20524;-69
2022/04/17 00:23:47;;;;;;;8.23;3.57;;;;;;;;;;10452172;28;20033;-69
2022/04/17 00:28:49;;;;;;;;;;;;;;;;;;10451770;28;20141;-69
2022/04/17 00:33:52;;;;;;;8.77;3.07;;;;;;;;;;10444195;28;19925;-68
2022/04/17 00:38:56;;;;;;;7.00;2.53;;;;;;;;;;10437079;28;20037;-69
2022/04/17 00:43:59;;;;;;;;;;;;;;;;;;10432219;28;20041;-69
2022/04/17 00:49:02;;;;;;;8.17;3.13;;;;;;;;;;10454465;28;20323;-68
2022/04/17 00:54:08;;;;;;;7.27;3.63;;;;;;;;;;10452741;28;20063;-69
2022/04/17 00:59:10;;;;;;;8.47;2.97;;;;;;;;;;10438276;28;20087;-69
2022/04/17 01:04:14;;;;;;;7.30;3.37;;;;;;;;;;10446475;28;20468;-70
2022/04/17 01:09:18;;;;;;;7.20;3.38;;;;;;;;;;10446627;28;20094;-69
2022/04/17 01:14:22;;;;;;;7.90;3.40;;;;;;;;;;10446254;28;20069;-70
2022/04/17 01:19:27;;;;;;;7.70;3.27;;;;;;;;;;10447812;28;20033;-69
2022/04/17 01:29:53;;;;;;;6.03;3.00;;;;;;;;;;10441261;28;20033;-69
2022/04/17 01:34:56;;;;;;;8.35;3.47;;;;;;;;;;10427392;28;20087;-69
2022/04/17 01:40:00;;;;;;;8.57;3.40;;;;;;;;;;10442707;28;20037;-69
2022/04/17 01:45:03;;;;;;;4.63;2.17;;;;;;;;;;10441781;28;20033;-70
2022/04/17 01:50:06;;;;;;;7.63;3.83;;;;;;;;;;10445329;28;20090;-69
2022/04/17 01:55:10;;;;;;;7.53;3.40;;;;;;;;;;10444505;28;20476;-69
2022/04/17 02:00:14;;;;;;;5.13;2.30;;;;;;;;;;10443301;28;20583;-69
2022/04/17 02:05:17;;;;;;;7.13;3.17;;;;;;;;;;10440980;28;20454;-69
2022/04/17 02:10:21;;;;;;;7.07;3.23;;;;;;;;;;10428053;28;20043;-69
2022/04/17 02:15:24;;;;;;;;;;;;;;;;;;10443217;28;20037;-70
2022/04/17 02:20:27;;;;;;;8.30;3.73;;;;;;;;;;10428187;28;20455;-70
2022/04/17 02:25:31;;;;;;;7.07;3.07;;;;;;;;;;10425252;28;20041;-70
2022/04/17 02:30:34;;;;;;;;;;;;;;;;;;10442257;28;20044;-70
2022/04/17 02:35:37;;;;;;;8.07;3.70;;;;;;;;;;10425889;28;20096;-70
2022/04/17 02:40:42;;;;;;;7.03;3.47;;;;;;;;;;10426598;28;20397;-70
2022/04/17 02:45:45;;;;;;;10.30;4.43;;;;;;;;;;10419289;28;20040;-71
2022/04/17 02:50:48;;;;;;;8.97;3.67;;;;;;;;;;10429571;28;20695;-69
2022/04/17 02:55:52;;;;;;;6.77;2.90;;;;;;;;;;10439842;28;20045;-70
2022/04/17 03:06:17;;;;;;;10.10;3.90;;;;;;;;;;10439904;28;20049;-70
2022/04/17 03:11:22;;;;;;;10.57;4.03;;;;;;;;;;10439482;28;20045;-70
2022/04/17 03:16:25;;;;;;;12.70;5.27;;;;;;;;;;10422167;28;20057;-70
2022/04/17 03:21:28;;;;;;;11.60;3.83;;;;;;;;;;10422472;28;20033;-70
2022/04/17 03:26:36;;;;;;;7.90;3.90;;;;;;;;;;10440698;28;20059;-71
2022/04/17 03:31:39;;;;;;;7.80;3.90;;;;;;;;;;10419807;28;20064;-70
2022/04/17 03:36:42;;;;;;;8.90;3.90;;;;;;;;;;10420462;28;20040;-69
2022/04/17 03:41:47;;;;;;;8.17;4.10;;;;;;;;;;10439897;28;20037;-69
2022/04/17 03:46:51;;;;;;;7.77;3.63;;;;;;;;;;10442210;28;20481;-69
2022/04/17 03:51:55;;;;;;;8.52;3.25;;;;;;;;;;10437639;28;20033;-69
2022/04/17 03:56:59;;;;;;;14.30;3.93;;;;;;;;;;10446358;28;20474;-69
2022/04/17 04:02:02;;;;;;;8.50;4.20;;;;;;;;;;10440194;28;20457;-69
2022/04/17 04:07:05;;;;;;;10.52;4.53;;;;;;;;;;10422441;28;20427;-70
2022/04/17 04:12:11;;;;;;;13.47;4.93;;;;;;;;;;10439950;28;20457;-70
2022/04/17 04:17:14;;;;;;;7.53;3.53;;;;;;;;;;10436807;28;20311;-70
2022/04/17 04:22:17;;;;;;;10.33;4.03;;;;;;;;;;10455046;22;20037;-80
2022/04/17 04:32:53;;;;;;;9.50;4.27;;;;;;;;;;10466374;28;20025;-80
2022/04/17 04:37:56;;;;;;;8.70;4.40;;;;;;;;;;10447007;28;20460;-79
2022/04/17 04:43:01;;;;;;;8.85;4.07;;;;;;;;;;10456390;28;20041;-80
2022/04/17 04:48:06;;;;;;;11.70;4.40;;;;;;;;;;10472574;28;20572;-80
2022/04/17 04:53:09;;;;;;;11.17;4.37;;;;;;;;;;10462595;28;20060;-80
2022/04/17 04:58:13;;;;;;;8.03;4.10;;;;;;;;;;10474242;28;20053;-79
2022/04/17 05:03:16;;;;;;;8.20;3.53;;;;;;;;;;10449833;28;20414;-80
2022/04/17 05:08:19;;;;;;;10.70;4.33;;;;;;;;;;10493035;22;20045;-71
2022/04/17 05:13:24;;;;;;;6.00;3.00;;;;;;;;;;10426105;28;20408;-73
2022/04/17 05:18:26;;;;;;;;;;;;;;;;;;10440622;28;20060;-72
2022/04/17 05:23:29;;;;;;;8.03;3.37;;;;;;;;;;10444039;28;19925;-72
2022/04/17 05:28:34;;;;;;;9.07;3.63;;;;;;;;;;10441586;28;20450;-72
2022/04/17 05:33:37;;;;;;;6.00;3.20;;;;;;;;;;10437951;28;20124;-72
2022/04/17 05:38:40;;;;;;;8.55;3.65;;;;;;;;;;10427167;28;20414;-72
2022/04/17 05:43:45;;;;;;;8.03;3.00;;;;;;;;;;10442146;28;20029;-71
2022/04/17 05:48:47;;;;;;;;;;;;;;;;;;10428247;28;20120;-70
2022/04/17 05:53:50;;;;;;;4.57;2.07;;;;;;;;;;10448355;28;20011;-71
2022/04/17 05:58:54;;;;;;;8.23;2.83;;;;;;;;;;10443683;28;20041;-72
2022/04/17 06:03:57;;;;;;;7.40;3.58;;;;;;;;;;10425130;28;20087;-72
2022/04/17 06:09:00;;;;;;;7.13;3.57;;;;;;;;;;10447012;28;20472;-72
2022/04/17 06:14:04;;;;;;;6.53;2.77;;;;;;;;;;10442636;28;20029;-73
2022/04/17 06:19:09;;;;;;;6.73;3.20;;;;;;;;;;10443875;28;20037;-73
2022/04/17 06:24:15;;;;;;;5.40;2.03;;;;;;;;;;10439064;28;20217;-72
2022/04/17 06:29:20;;;;;;;5.83;2.37;;;;;;;;;;10439796;28;20065;-74
2022/04/17 06:34:23;;;;;;;6.88;3.25;;;;;;;;;;10439235;28;20025;-73
2022/04/17 06:39:26;;;;;;;4.80;2.63;;;;;;;;;;10447487;28;20036;-73
2022/04/17 06:44:30;;;;;;;9.10;3.40;;;;;;;;;;10420061;28;20060;-73
2022/04/17 06:49:32;;;;;;;7.35;3.00;;;;;;;;;;10441858;28;20049;-74
2022/04/17 06:54:35;;;;;;;7.65;3.28;;;;;;;;;;10439986;28;20067;-73
2022/04/17 06:59:40;;;;;;;5.60;3.00;;;;;;;;;;10442619;28;20056;-74
2022/04/17 07:04:43;;;;;;;2.20;2.00;;;;;;;;;;10438298;28;20044;-73
2022/04/17 07:09:46;;;;;;;7.72;3.35;;;;;;;;;;10442143;28;20664;-73
2022/04/17 07:14:51;;;;;;;3.40;2.20;;;;;;;;;;10436899;28;20060;-71
2022/04/17 07:19:57;;;;;;;2.35;1.83;;;;;;;;;;10440699;28;20040;-73
2022/04/17 07:25:01;;;;;;;5.85;1.95;;;;;;;;;;10443312;28;20076;-73
2022/04/17 07:30:09;;;;;;;4.10;2.55;;;;;;;;;;10421598;28;20147;-73
2022/04/17 07:35:13;;;;;;;4.07;2.58;;;;;;;;;;10439001;28;20045;-73
2022/04/17 07:40:18;;;;;;;4.32;2.80;;;;;;;;;;10439591;28;20580;-72
2022/04/17 07:45:23;;;;;;;3.47;2.67;;;;;;;;;;10425976;28;20061;-73
2022/04/17 07:50:27;;;;;;;3.92;1.83;;;;;;;;;;10439517;28;20441;-73
2022/04/17 07:55:29;;;;;;;3.67;2.60;;;;;;;;;;10422540;28;20331;-73
2022/04/17 08:00:42;;;;;;;5.35;2.90;;;;;;;;;;10419585;28;20044;-73
2022/04/17 08:05:46;;;;;;;4.22;2.88;;;;;;;;;;10419667;28;20037;-73
2022/04/17 08:10:48;;;;;;;5.80;2.80;;;;;;;;;;10441187;28;20045;-74
2022/04/17 08:15:53;;;;;;;4.28;2.90;;;;;;;;;;10448244;28;20764;-72
2022/04/17 08:20:55;;;;;;;3.50;2.85;;;;;;;;;;10448224;28;20029;-72
2022/04/17 08:25:59;;;;;;;4.38;3.10;;;;;;;;;;10445212;28;20093;-72
2022/04/17 08:31:03;;;;;;;4.68;3.00;;;;;;;;;;10429183;28;20073;-73
2022/04/17 08:36:08;;;;;;;5.55;3.80;;;;;;;;;;10440165;28;20063;-73
2022/04/17 08:41:12;;;;;;;4.35;3.10;;;;;;;;;;10429052;28;20121;-70
2022/04/17 08:46:16;;;;;;;3.92;3.08;;;;;;;;;;10445466;28;20057;-72
2022/04/17 08:51:20;;;;;;;3.72;3.17;;;;;;;;;;10429310;28;20160;-72
2022/04/17 08:56:23;;;;;;;6.03;3.33;;;;;;;;;;10427654;28;20044;-72
2022/04/17 09:01:29;;;;;;;4.25;3.00;;;;;;;;;;10425959;28;20477;-71
2022/04/17 09:06:32;;;;;;;4.30;3.20;;;;;;;;;;10444900;28;20040;-72
2022/04/17 09:11:35;;;;;;;3.20;2.90;;;;;;;;;;10440649;28;20041;-72
2022/04/17 09:16:39;;;;;;;2.10;2.00;;;;;;;;;;10429097;28;20041;-72
2022/04/17 09:21:43;;;;;;;4.15;2.90;;;;;;;;;;10440095;28;20409;-71
2022/04/17 09:26:50;;;;;;;3.35;3.05;;;;;;;;;;10427343;28;20067;-72
2022/04/17 09:31:59;;;;;;;4.47;3.50;;;;;;;;;;10438905;28;20236;-73
2022/04/17 09:37:02;;;;;;;3.92;3.38;;;;;;;;;;10442322;28;20033;-72
2022/04/17 09:42:05;;;;;;;3.33;2.95;;;;;;;;;;10443681;28;20029;-72
2022/04/17 09:47:12;;;;;;;3.88;3.30;;;;;;;;;;10443110;28;20068;-72
2022/04/17 09:52:15;;;;;;;3.25;2.90;;;;;;;;;;10423388;28;20049;-72
2022/04/17 09:57:23;;;;;;;3.80;2.60;;;;;;;;;;10428642;28;20151;-72
2022/04/17 10:02:27;;;;;;;5.55;3.38;;;;;;;;;;10422937;28;20087;-72
2022/04/17 10:07:31;;;;;;;3.60;2.85;;;;;;;;;;10439305;28;20433;-73
2022/04/17 10:12:35;;;;;;;3.95;3.38;;;;;;;;;;10419409;28;20051;-73
2022/04/17 10:17:41;;;;;;;4.10;3.10;;;;;;;;;;10426203;28;20136;-73
2022/04/17 10:28:13;;;;;;;3.80;3.10;;;;;;;;;;10368561;28;20421;-72
2022/04/17 10:33:26;;;;;;;5.05;3.63;;;;;;;;;;10369412;28;20087;-71
2022/04/17 10:38:31;;;;;;;4.20;3.22;;;;;;;;;;10359699;28;20068;-71
2022/04/17 10:43:35;;;;;;;4.43;3.67;;;;;;;;;;10361287;28;20076;-71
2022/04/17 10:48:46;;;;;;;4.80;3.90;;;;;;;;;;10360083;28;20072;-71
2022/04/17 10:53:49;;;;;;;;;;;;;;;;;;10346739;28;20053;-70
2022/04/17 10:58:52;;;;;;;5.72;3.95;;;;;;;;;;10362328;28;20397;-72
2022/04/17 11:03:57;;;;;;;4.45;3.97;;;;;;;;;;10358564;28;20030;-70
2022/04/17 11:09:05;;;;;;;4.65;2.80;;;;;;;;;;10365017;28;20128;-70
2022/04/17 11:14:09;;;;;;;4.63;3.83;;;;;;;;;;10356538;28;20030;-70
2022/04/17 11:19:14;;;;;;;6.55;3.80;;;;;;;;;;10361315;28;20045;-70
2022/04/17 11:24:17;;;;;;;4.25;2.72;;;;;;;;;;10360010;28;20068;-70
2022/04/17 11:29:33;;;;;;;4.15;3.58;;;;;;;;;;10361976;28;20495;-71
2022/04/17 11:34:46;;;;;;;5.40;3.13;;;;;;;;;;10359629;28;20236;-71
2022/04/17 11:39:49;;;;;;;4.00;3.60;;;;;;;;;;10360308;28;20066;-71
2022/04/17 11:44:52;;;;;;;3.80;3.00;;;;;;;;;;10358482;28;20132;-70
2022/04/17 11:49:56;;;;;;;4.47;2.90;;;;;;;;;;10348251;28;20034;-71
2022/04/17 11:55:00;;;;;;;3.70;2.90;;;;;;;;;;10356380;28;20042;-71
2022/04/17 12:00:05;;;;;;;4.82;3.53;;;;;;;;;;10354313;28;20038;-71
2022/04/17 12:05:10;;;;;;;3.63;3.17;;;;;;;;;;10359035;28;20319;-71
2022/04/17 12:10:14;;;;;;;4.18;2.25;;;;;;;;;;10357616;28;20138;-70
2022/04/17 12:15:17;;;;;;;4.13;3.08;;;;;;;;;;10354218;28;20038;-72
2022/04/17 12:20:22;;;;;;;5.40;2.88;;;;;;;;;;10342513;28;20046;-72
2022/04/17 12:25:26;;;;;;;3.38;3.08;;;;;;;;;;10359328;28;20061;-72
2022/04/17 12:30:30;;;;;;;3.53;2.80;;;;;;;;;;10358147;28;20042;-70
2022/04/17 12:35:35;;;;;;;3.05;2.35;;;;;;;;;;10356980;28;20046;-71
2022/04/17 12:40:39;;;;;;;3.70;2.42;;;;;;;;;;10338345;28;20410;-70
2022/04/17 12:45:52;;;;;;;3.25;2.28;;;;;;;;;;10360295;28;20068;-71
2022/04/17 12:50:57;;;;;;;3.17;2.75;;;;;;;;;;10353662;28;20100;-72
2022/04/17 12:56:04;;;;;;;3.03;2.28;;;;;;;;;;10356722;28;20077;-72
2022/04/17 13:01:07;;;;;;;2.97;2.40;;;;;;;;;;10360303;28;20084;-70
2022/04/17 13:06:18;;;;;;;4.63;2.63;;;;;;;;;;10348258;28;20508;-70
2022/04/17 13:11:21;;;;;;;4.95;2.72;;;;;;;;;;10362596;28;20046;-72
2022/04/17 13:16:23;;;;;;;2.90;2.30;;;;;;;;;;10360670;28;20046;-72
2022/04/17 13:21:27;;;;;;;3.28;2.38;;;;;;;;;;10364693;28;20626;-70
2022/04/17 13:26:30;;;;;;;3.92;2.50;;;;;;;;;;10364740;28;20524;-70
2022/04/17 13:31:33;;;;;;;;;;;;;;;;;;10359842;28;20041;-72
2022/04/17 13:36:37;;;;;;;8.17;2.60;;;;;;;;;;10346673;28;20304;-71
2022/04/17 13:41:40;;;;;;;4.00;2.42;;;;;;;;;;10368802;28;20366;-71
2022/04/17 13:46:43;;;;;;;3.45;2.13;;;;;;;;;;10362294;28;20837;-70
2022/04/17 13:51:47;;;;;;;4.30;2.28;;;;;;;;;;10357790;28;20046;-71
2022/04/17 13:56:50;;;;;;;3.33;2.65;;;;;;;;;;10359455;28;20088;-71
2022/04/17 14:01:52;;;;;;;2.70;2.30;;;;;;;;;;10360418;28;20627;-71
2022/04/17 14:06:57;;;;;;;4.70;2.42;;;;;;;;;;10364683;28;20067;-71
2022/04/17 14:12:00;;;;;;;3.15;2.00;;;;;;;;;;10358353;28;20061;-71
2022/04/17 14:17:03;;;;;;;4.28;2.10;;;;;;;;;;10354834;28;20509;-70
2022/04/17 14:22:08;;;;;;;3.08;2.05;;;;;;;;;;10337119;28;20125;-72
2022/04/17 14:27:11;;;;;;;3.58;2.30;;;;;;;;;;10359994;28;20038;-71
2022/04/17 14:32:14;;;;;;;4.18;2.00;;;;;;;;;;10361458;28;20053;-71
2022/04/17 14:37:18;;;;;;;3.28;2.42;;;;;;;;;;10362259;28;20057;-71
2022/04/17 14:42:21;;;;;;;2.60;2.10;;;;;;;;;;10363837;28;20042;-72
2022/04/17 14:47:24;;;;;;;5.68;1.90;;;;;;;;;;10343160;28;20038;-72
2022/04/17 14:52:28;;;;;;;2.80;1.98;;;;;;;;;;10339739;28;20050;-72
2022/04/17 14:57:31;;;;;;;5.72;2.28;;;;;;;;;;10362206;28;20038;-71
2022/04/17 15:02:35;;;;;;;4.37;2.10;;;;;;;;;;10368866;28;20057;-71
2022/04/17 15:07:40;;;;;;;3.38;2.47;;;;;;;;;;10362346;28;20288;-71
2022/04/17 15:12:43;;;;;;;3.25;1.95;;;;;;;;;;10365201;28;20044;-71
2022/04/17 15:17:46;;;;;;;2.97;2.30;;;;;;;;;;10339540;28;20521;-71
2022/04/17 15:22:50;;;;;;;3.88;2.30;;;;;;;;;;10358744;28;20097;-71
2022/04/17 15:27:53;;;;;;;2.50;1.52;;;;;;;;;;10366921;28;20034;-71
2022/04/17 15:32:56;;;;;;;3.70;2.30;;;;;;;;;;10357927;28;20510;-71
2022/04/17 15:38:00;;;;;;;3.23;2.00;;;;;;;;;;10366158;28;20296;-71
2022/04/17 15:47:54;;;;;;;3.70;2.15;;;;;;;;;;10364007;28;20421;-70
2022/04/17 15:48:27;;;;;;;3.05;1.75;;;;;;;;;;10366570;28;20049;-71
2022/04/17 15:53:32;;;;;;;3.77;2.40;;;;;;;;;;10361774;28;20099;-72
2022/04/17 15:58:35;;;;;;;3.47;1.38;;;;;;;;;;10363907;28;20646;-71
2022/04/17 16:03:38;;;;;;;3.20;1.83;;;;;;;;;;10360685;28;20478;-71
2022/04/17 16:08:41;;;;;;;;;;;;;;;;;;10363304;28;20480;-72
2022/04/17 16:13:46;;;;;;;6.03;2.10;;;;;;;;;;10360337;28;19924;-71
2022/04/17 16:18:49;;;;;;;2.67;1.83;;;;;;;;;;10364629;28;20121;-72
2022/04/17 16:23:52;;;;;;;2.50;1.58;;;;;;;;;;10358878;28;20042;-71
2022/04/17 16:28:56;;;;;;;3.03;2.00;;;;;;;;;;10435458;22;20108;-77
2022/04/17 16:33:59;;;;;;;3.63;2.33;;;;;;;;;;10420151;28;20063;-77
2022/04/17 16:39:01;;;;;;;3.15;1.65;;;;;;;;;;10447907;28;20085;-78
2022/04/17 16:44:06;;;;;;;3.60;2.15;;;;;;;;;;10454817;28;20053;-77
2022/04/17 16:49:09;;;;;;;1.83;1.40;;;;;;;;;;10438395;28;20048;-78
2022/04/17 16:54:12;;;;;;;3.70;1.90;;;;;;;;;;10438038;28;20044;-76
2022/04/17 16:59:17;;;;;;;2.05;1.85;;;;;;;;;;10446285;28;20041;-78
2022/04/17 17:04:21;;;;;;;2.70;1.63;;;;;;;;;;10438500;28;20075;-76
2022/04/17 17:09:23;;;;;;;2.60;1.87;;;;;;;;;;10419855;28;20049;-77
2022/04/17 17:14:28;;;;;;;4.15;2.00;;;;;;;;;;10437256;28;20037;-77
2022/04/17 17:19:32;;;;;;;3.17;1.70;;;;;;;;;;10442863;28;20037;-76
2022/04/17 17:24:35;;;;;;;4.20;1.83;;;;;;;;;;10439731;28;20041;-76
2022/04/17 17:29:40;;;;;;;3.22;2.00;;;;;;;;;;10437884;28;20041;-76
2022/04/17 17:34:43;;;;;;;4.25;2.20;;;;;;;;;;10438411;28;20117;-76
2022/04/17 17:39:45;;;;;;;4.20;1.90;;;;;;;;;;10422221;28;20049;-77
2022/04/17 17:44:50;;;;;;;3.15;1.63;;;;;;;;;;10432437;28;20144;-76
2022/04/17 17:49:54;;;;;;;5.88;2.00;;;;;;;;;;10441762;28;20076;-77
2022/04/17 17:54:58;;;;;;;3.53;1.88;;;;;;;;;;10446340;28;20098;-76
2022/04/17 18:00:03;;;;;;;4.85;2.17;;;;;;;;;;10447153;28;20049;-75
2022/04/17 18:05:07;;;;;;;4.53;2.15;;;;;;;;;;10446499;28;20029;-76
2022/04/17 18:15:45;;;;;;;4.68;2.50;;;;;;;;;;10367430;28;20057;-76
2022/04/17 18:20:49;;;;;;;3.78;2.08;;;;;;;;;;10423285;28;20144;-78
2022/04/17 18:25:53;;;;;;;5.05;2.45;;;;;;;;;;10440527;28;20045;-76
2022/04/17 18:30:57;;;;;;;5.55;2.25;;;;;;;;;;10441146;28;20099;-76
2022/04/17 18:36:00;;;;;;;4.75;2.22;;;;;;;;;;10422941;28;20095;-77
2022/04/17 18:41:03;;;;;;;4.35;2.08;;;;;;;;;;10441108;28;20037;-76
2022/04/17 18:46:07;;;;;;;6.25;2.60;;;;;;;;;;10428556;28;20049;-78
2022/04/17 18:51:10;;;;;;;4.70;2.50;;;;;;;;;;10443123;28;20052;-76
2022/04/17 18:56:13;;;;;;;5.47;2.85;;;;;;;;;;10431203;28;20685;-75
2022/04/17 19:01:17;;;;;;;9.40;3.17;;;;;;;;;;10430020;28;20049;-76
2022/04/17 19:06:20;;;;;;;2.35;1.33;;;;;;;;;;10425534;28;20036;-77
2022/04/17 19:16:55;;;;;;;5.90;2.83;;;;;;;;;;10398303;28;20065;-78
2022/04/17 19:21:58;;;;;;;5.78;2.72;;;;;;;;;;10416370;28;20045;-76
2022/04/17 19:27:01;;;;;;;5.45;2.60;;;;;;;;;;10439263;22;20047;-73
2022/04/17 19:37:26;;;;;;;6.38;2.80;;;;;;;;;;10423787;22;20072;-69
2022/04/17 19:42:29;;;;;;;6.75;2.67;;;;;;;;;;10478995;28;20056;-69
2022/04/17 19:47:33;;;;;;;5.53;2.88;;;;;;;;;;10473644;28;20035;-69
2022/04/17 19:52:36;;;;;;;6.70;3.20;;;;;;;;;;10421834;28;20098;-70
2022/04/17 19:57:38;;;;;;;6.13;2.20;;;;;;;;;;10442595;28;20460;-69
2022/04/17 20:02:43;;;;;;;4.97;2.83;;;;;;;;;;10420680;28;20041;-69
2022/04/17 20:07:46;;;;;;;6.65;3.35;;;;;;;;;;10442800;28;20037;-69
2022/04/17 20:12:54;;;;;;;6.97;3.00;;;;;;;;;;10446609;28;20053;-69
2022/04/17 20:18:00;;;;;;;5.70;2.75;;;;;;;;;;10450896;28;20045;-69
2022/04/17 20:23:02;;;;;;;13.18;5.82;;;;;;;;;;10429825;28;20079;-69
2022/04/17 20:28:05;;;;;;;7.30;3.25;;;;;;;;;;10429780;28;20110;-70
2022/04/17 20:33:11;;;;;;;8.40;4.00;;;;;;;;;;10447130;28;20048;-69
2022/04/17 20:38:18;;;;;;;6.10;2.38;;;;;;;;;;10428371;28;20045;-69
2022/04/17 20:54:04;;;;;;;7.28;3.50;;;;;;;;;;10444497;28;20064;-68
2022/04/17 20:59:06;;;;;;;8.40;3.30;;;;;;;;;;10446605;28;20131;-69
2022/04/17 21:04:11;;;;;;;3.05;1.90;;;;;;;;;;10444157;28;20043;-69
2022/04/17 21:09:13;;;;;;;;;;;;;;;;;;10446452;28;20037;-69
2022/04/17 21:14:16;;;;;;;6.97;2.92;;;;;;;;;;10442455;28;19920;-69
2022/04/17 21:19:20;;;;;;;6.03;2.90;;;;;;;;;;10444569;28;20041;-68
2022/04/17 21:24:23;;;;;;;7.38;3.28;;;;;;;;;;10448410;28;20041;-69
2022/04/17 21:29:26;;;;;;;5.68;2.80;;;;;;;;;;10444609;28;20129;-69
2022/04/17 21:34:30;;;;;;;6.60;3.50;;;;;;;;;;10444918;28;20033;-70
2022/04/17 21:39:33;;;;;;;2.90;2.03;;;;;;;;;;10426384;28;20639;-69
2022/04/17 21:44:36;;;;;;;8.38;3.50;;;;;;;;;;10440425;28;20090;-69
2022/04/17 21:49:41;;;;;;;6.95;2.65;;;;;;;;;;10427836;28;20060;-71
2022/04/17 21:54:43;;;;;;;;;;;;;;;;;;10443039;28;20037;-69
2022/04/17 22:05:09;;;;;;;5.03;1.88;;;;;;;;;;10425773;28;20037;-69
2022/04/17 22:10:11;;;;;;;;;;;;;;;;;;10444538;28;20041;-69
2022/04/17 22:15:15;;;;;;;4.95;2.65;;;;;;;;;;10442455;28;20253;-68
2022/04/17 22:20:19;;;;;;;5.45;2.67;;;;;;;;;;10427087;28;20103;-67
2022/04/17 22:25:21;;;;;;;6.07;2.78;;;;;;;;;;10446645;28;20040;-68
2022/04/17 22:30:24;;;;;;;9.02;3.05;;;;;;;;;;10444734;28;20037;-70
2022/04/17 22:35:29;;;;;;;6.60;3.07;;;;;;;;;;10443520;28;20041;-70
2022/04/17 22:40:31;;;;;;;5.18;2.80;;;;;;;;;;10447076;28;20072;-69
2022/04/17 22:45:35;;;;;;;6.03;2.88;;;;;;;;;;10424987;28;20090;-69
2022/04/17 22:50:39;;;;;;;6.85;2.90;;;;;;;;;;10438436;28;20045;-69
2022/04/17 22:55:45;;;;;;;7.20;2.75;;;;;;;;;;10427367;28;20045;-70
2022/04/17 23:06:10;;;;;;;5.10;3.20;;;;;;;;;;10442698;28;20037;-69
2022/04/17 23:11:12;;;;;;;;;;;;;;;;;;10443428;28;20571;-71
2022/04/17 23:16:15;;;;;;;6.67;3.00;;;;;;;;;;10422992;28;20256;-70
2022/04/17 23:21:20;;;;;;;6.10;3.17;;;;;;;;;;10438457;28;21879;-71
2022/04/17 23:26:23;;;;;;;8.83;3.50;;;;;;;;;;10442600;28;20025;-70
2022/04/17 23:31:26;;;;;;;7.43;3.22;;;;;;;;;;10437883;28;20037;-71
2022/04/17 23:36:30;;;;;;;9.97;3.70;;;;;;;;;;10422886;28;20072;-70
2022/04/17 23:41:34;;;;;;;7.00;3.17;;;;;;;;;;10438143;28;20041;-70
2022/04/17 23:46:37;;;;;;;7.83;3.53;;;;;;;;;;10421877;28;20037;-70
2022/04/17 23:51:41;;;;;;;7.83;3.03;;;;;;;;;;10438061;28;20045;-70
2022/04/17 23:56:44;;;;;;;8.60;3.25;;;;;;;;;;10441975;28;20036;-67
